createdAt,value
2018-11-02T00:00:24.164Z,81.20
2018-11-02T00:02:53.385Z,81.20
2018-11-02T00:05:22.507Z,81.30
2018-11-02T00:08:07.305Z,81.30
2018-11-02T00:10:51.310Z,81.30
2018-11-02T00:13:20.604Z,81.50
2018-11-02T00:15:49.664Z,81.40
2018-11-02T00:18:18.795Z,81.50
2018-11-02T00:20:48.030Z,81.50
2018-11-02T00:23:17.156Z,81.50
2018-11-02T00:25:46.343Z,81.60
2018-11-02T00:28:15.460Z,81.70
2018-11-02T00:30:44.524Z,81.70
2018-11-02T00:33:13.787Z,81.90
2018-11-02T00:35:43.049Z,82.20
2018-11-02T00:38:12.188Z,82.20
2018-11-02T00:40:41.300Z,82.10
2018-11-02T00:43:10.541Z,82.00
2018-11-02T00:45:39.609Z,82.20
2018-11-02T00:48:08.808Z,82.30
2018-11-02T00:50:37.950Z,82.40
2018-11-02T00:53:07.471Z,82.30
2018-11-02T00:55:36.531Z,82.30
2018-11-02T00:58:06.000Z,82.40
2018-11-02T01:00:35.082Z,82.40
2018-11-02T01:03:04.238Z,82.50
2018-11-02T01:05:33.369Z,82.60
2018-11-02T01:08:02.528Z,82.50
2018-11-02T01:10:31.574Z,82.70
2018-11-02T01:13:00.654Z,82.70
2018-11-02T01:15:29.739Z,82.60
2018-11-02T01:17:59.075Z,82.70
2018-11-02T01:20:28.143Z,82.70
2018-11-02T01:22:57.259Z,83.00
2018-11-02T01:25:26.329Z,83.00
2018-11-02T01:27:55.437Z,82.90
2018-11-02T01:30:24.533Z,83.00
2018-11-02T01:32:53.613Z,83.10
2018-11-02T01:35:22.687Z,83.20
2018-11-02T01:37:51.823Z,83.30
2018-11-02T01:40:20.901Z,83.30
2018-11-02T01:42:50.111Z,83.30
2018-11-02T01:45:19.209Z,83.30
2018-11-02T01:47:48.617Z,83.40
2018-11-02T01:50:17.858Z,83.30
2018-11-02T01:52:46.962Z,83.50
2018-11-02T01:55:16.054Z,83.50
2018-11-02T01:57:45.171Z,83.40
2018-11-02T02:00:14.283Z,83.40
2018-11-02T02:02:43.389Z,83.50
2018-11-02T02:05:12.487Z,83.40
2018-11-02T02:07:41.587Z,83.60
2018-11-02T02:10:10.692Z,83.80
2018-11-02T02:12:39.960Z,84.00
2018-11-02T02:15:09.758Z,84.00
2018-11-02T02:17:38.880Z,84.10
2018-11-02T02:20:08.455Z,84.10
2018-11-02T02:22:37.578Z,84.10
2018-11-02T02:25:07.061Z,84.40
2018-11-02T02:27:37.806Z,84.60
2018-11-02T02:30:09.960Z,84.60
2018-11-02T02:32:39.188Z,84.70
2018-11-02T02:35:09.214Z,84.80
2018-11-02T02:37:39.730Z,84.80
2018-11-02T02:40:10.850Z,85.10
2018-11-02T02:42:40.801Z,85.30
2018-11-02T02:45:11.018Z,85.80
2018-11-02T02:47:40.520Z,85.60
2018-11-02T02:50:12.150Z,85.50
2018-11-02T02:52:41.976Z,85.60
2018-11-02T02:55:11.097Z,85.90
2018-11-02T02:57:40.380Z,85.90
2018-11-02T03:00:11.924Z,85.90
2018-11-02T03:02:41.230Z,86.10
2018-11-02T03:05:10.929Z,86.10
2018-11-02T03:07:40.869Z,86.10
2018-11-02T03:10:10.515Z,86.30
2018-11-02T03:12:39.977Z,86.20
2018-11-02T03:15:09.348Z,86.20
2018-11-02T03:17:38.783Z,86.20
2018-11-02T03:20:09.083Z,86.40
2018-11-02T03:22:38.393Z,86.40
2018-11-02T03:25:08.639Z,86.50
2018-11-02T03:27:37.766Z,87.00
2018-11-02T03:30:07.986Z,88.10
2018-11-02T03:32:37.362Z,87.30
2018-11-02T03:35:06.469Z,87.10
2018-11-02T03:37:35.562Z,86.90
2018-11-02T03:40:05.005Z,87.00
2018-11-02T03:42:34.374Z,87.10
2018-11-02T03:45:03.455Z,87.10
2018-11-02T03:47:32.725Z,87.30
2018-11-02T03:50:01.773Z,87.30
2018-11-02T03:52:30.901Z,87.30
2018-11-02T03:54:59.974Z,87.30
2018-11-02T03:57:29.048Z,87.60
2018-11-02T03:59:58.741Z,87.90
2018-11-02T04:02:28.112Z,87.50
2018-11-02T04:04:57.212Z,87.40
2018-11-02T04:07:26.350Z,87.40
2018-11-02T04:09:55.434Z,87.40
2018-11-02T04:12:24.528Z,87.70
2018-11-02T04:14:53.618Z,87.50
2018-11-02T04:17:22.905Z,87.50
2018-11-02T04:19:52.032Z,87.20
2018-11-02T04:22:21.117Z,87.20
2018-11-02T04:24:50.218Z,87.30
2018-11-02T04:27:19.706Z,87.30
2018-11-02T04:29:49.008Z,87.60
2018-11-02T04:32:18.508Z,87.90
2018-11-02T04:34:47.577Z,88.00
2018-11-02T04:37:16.658Z,88.40
2018-11-02T04:39:45.740Z,88.60
2018-11-02T04:42:14.846Z,88.50
2018-11-02T04:44:43.924Z,88.60
2018-11-02T04:47:13.062Z,89.10
2018-11-02T04:49:42.150Z,89.30
2018-11-02T04:52:11.274Z,89.00
2018-11-02T04:54:40.382Z,89.10
2018-11-02T04:57:09.461Z,89.00
2018-11-02T04:59:38.609Z,89.00
2018-11-02T05:02:07.958Z,89.30
2018-11-02T05:04:37.053Z,89.60
2018-11-02T05:07:06.131Z,89.90
2018-11-02T05:09:35.226Z,89.30
2018-11-02T05:14:37.489Z,88.80
2018-11-02T05:17:06.561Z,89.00
2018-11-02T05:19:35.937Z,89.10
2018-11-02T05:22:05.395Z,88.60
2018-11-02T05:24:34.481Z,88.50
2018-11-02T05:27:03.681Z,88.60
2018-11-02T05:29:32.804Z,88.80
2018-11-02T05:32:01.885Z,88.50
2018-11-02T05:34:30.961Z,88.70
2018-11-02T05:37:00.153Z,88.20
2018-11-02T05:39:29.351Z,88.50
2018-11-02T05:41:58.527Z,88.40
2018-11-02T05:44:27.621Z,88.50
2018-11-02T05:46:56.753Z,88.30
2018-11-02T05:49:25.854Z,88.20
2018-11-02T05:51:54.933Z,88.10
2018-11-02T05:54:24.360Z,87.70
2018-11-02T05:56:53.473Z,88.50
2018-11-02T05:59:22.607Z,88.80
2018-11-02T06:01:51.727Z,88.30
2018-11-02T06:04:20.858Z,87.90
2018-11-02T06:06:49.963Z,88.20
2018-11-02T06:09:19.108Z,88.30
2018-11-02T06:11:48.226Z,88.60
2018-11-02T06:14:17.333Z,88.50
2018-11-02T06:16:46.570Z,88.20
2018-11-02T06:19:16.615Z,88.90
2018-11-02T06:21:45.886Z,88.90
2018-11-02T06:24:15.261Z,87.80
2018-11-02T06:26:44.320Z,87.90
2018-11-02T06:29:13.376Z,89.10
2018-11-02T06:31:42.488Z,88.20
2018-11-02T06:34:11.887Z,88.50
2018-11-02T06:36:40.997Z,88.50
2018-11-02T06:39:10.935Z,88.50
2018-11-02T06:41:40.039Z,88.70
2018-11-02T06:44:09.144Z,88.30
2018-11-02T06:46:38.259Z,87.70
2018-11-02T06:49:07.488Z,87.50
2018-11-02T06:51:36.566Z,87.20
2018-11-02T06:54:06.093Z,87.30
2018-11-02T06:56:35.257Z,87.50
2018-11-02T06:59:04.593Z,87.50
2018-11-02T07:01:33.751Z,87.70
2018-11-02T07:04:03.069Z,87.50
2018-11-02T07:06:32.697Z,87.80
2018-11-02T07:09:02.188Z,87.50
2018-11-02T07:11:31.331Z,87.90
2018-11-02T07:14:00.711Z,88.20
2018-11-02T07:16:29.768Z,88.00
2018-11-02T07:18:58.893Z,87.50
2018-11-02T07:21:28.358Z,87.20
2018-11-02T07:23:57.735Z,87.30
2018-11-02T07:26:26.897Z,87.60
2018-11-02T07:28:56.179Z,87.70
2018-11-02T07:31:25.449Z,87.60
2018-11-02T07:33:55.025Z,87.50
2018-11-02T07:36:24.497Z,87.30
2018-11-02T07:39:10.580Z,87.30
2018-11-02T07:41:45.602Z,87.50
2018-11-02T07:44:14.706Z,87.70
2018-11-02T07:46:44.047Z,87.60
2018-11-02T07:49:13.271Z,87.50
2018-11-02T07:51:42.581Z,87.40
2018-11-02T07:54:12.424Z,87.00
2018-11-02T07:56:41.698Z,86.60
2018-11-02T07:59:11.971Z,86.40
2018-11-02T08:01:41.556Z,86.20
2018-11-02T08:04:11.129Z,85.40
2018-11-02T08:06:40.652Z,84.30
2018-11-02T08:09:12.017Z,83.90
2018-11-02T08:11:41.572Z,83.70
2018-11-02T08:14:11.253Z,83.30
2018-11-02T08:16:40.752Z,83.60
2018-11-02T08:19:10.178Z,83.30
2018-11-02T08:21:39.422Z,83.10
2018-11-02T08:24:08.695Z,83.10
2018-11-02T08:26:37.945Z,82.60
2018-11-02T08:29:07.542Z,82.60
2018-11-02T08:31:36.928Z,81.50
2018-11-02T08:34:06.372Z,81.40
2018-11-02T08:36:35.616Z,80.80
2018-11-02T08:39:07.166Z,79.80
2018-11-02T08:41:36.617Z,79.40
2018-11-02T08:44:06.524Z,78.50
2018-11-02T08:47:42.832Z,78.40
2018-11-02T08:50:44.042Z,77.90
2018-11-02T08:53:13.515Z,78.40
2018-11-02T08:55:42.835Z,78.50
2018-11-02T08:58:12.256Z,77.50
2018-11-02T09:00:41.508Z,78.80
2018-11-02T09:03:11.715Z,77.80
2018-11-02T09:05:41.031Z,77.80
2018-11-02T09:08:10.232Z,77.70
2018-11-02T09:10:39.544Z,76.70
2018-11-02T09:13:08.838Z,76.90
2018-11-02T09:15:38.186Z,76.90
2018-11-02T09:18:07.292Z,77.40
2018-11-02T09:20:36.688Z,77.90
2018-11-02T09:23:06.140Z,77.70
2018-11-02T09:25:35.490Z,77.30
2018-11-02T09:28:04.743Z,77.30
2018-11-02T09:30:33.724Z,76.20
2018-11-02T09:33:02.924Z,76.10
2018-11-02T09:35:32.277Z,75.30
2018-11-02T09:38:01.354Z,75.00
2018-11-02T09:40:30.807Z,73.70
2018-11-02T09:42:59.785Z,72.40
2018-11-02T09:45:29.001Z,72.90
2018-11-02T09:47:58.089Z,73.60
2018-11-02T09:50:27.190Z,73.00
2018-11-02T09:52:56.409Z,70.90
2018-11-02T09:55:25.479Z,71.60
2018-11-02T09:57:54.612Z,72.00
2018-11-02T10:00:23.923Z,70.50
2018-11-02T10:02:53.126Z,69.10
2018-11-02T10:05:22.268Z,69.20
2018-11-02T10:07:51.494Z,68.70
2018-11-02T10:10:20.601Z,69.50
2018-11-02T10:12:49.712Z,68.20
2018-11-02T10:15:18.857Z,69.20
2018-11-02T10:17:47.982Z,69.10
2018-11-02T10:20:17.335Z,68.60
2018-11-02T10:22:46.398Z,68.50
2018-11-02T10:25:15.568Z,67.70
2018-11-02T10:27:44.703Z,67.40
2018-11-02T10:30:14.654Z,67.00
2018-11-02T10:32:45.417Z,67.30
2018-11-02T10:35:14.975Z,67.00
2018-11-02T10:37:44.230Z,66.20
2018-11-02T10:40:15.404Z,65.80
2018-11-02T10:42:48.101Z,65.00
2018-11-02T10:45:17.504Z,65.60
2018-11-02T10:47:47.502Z,65.10
2018-11-02T10:50:16.804Z,64.10
2018-11-02T10:52:45.884Z,63.50
2018-11-02T10:55:15.041Z,63.00
2018-11-02T10:57:44.108Z,63.90
2018-11-02T11:00:18.767Z,63.60
2018-11-02T11:02:48.002Z,63.30
2018-11-02T11:05:17.878Z,62.00
2018-11-02T11:07:47.027Z,61.60
2018-11-02T11:10:16.167Z,61.40
2018-11-02T11:12:45.508Z,60.20
2018-11-02T11:15:14.618Z,60.90
2018-11-02T11:17:43.699Z,59.30
2018-11-02T11:20:14.443Z,59.20
2018-11-02T11:22:43.662Z,59.60
2018-11-02T11:25:14.379Z,58.70
2018-11-02T11:27:43.448Z,58.40
2018-11-02T11:30:15.724Z,57.50
2018-11-02T11:32:45.428Z,56.00
2018-11-02T11:35:16.203Z,53.90
2018-11-02T11:37:45.668Z,52.40
2018-11-02T11:40:16.591Z,51.50
2018-11-02T11:42:45.689Z,50.60
2018-11-02T11:45:16.584Z,50.00
2018-11-02T11:47:45.945Z,49.00
2018-11-02T11:50:24.273Z,47.80
2018-11-02T11:52:54.307Z,46.30
2018-11-02T11:55:23.564Z,45.80
2018-11-02T11:57:53.367Z,44.90
2018-11-02T12:00:23.789Z,44.50
2018-11-02T12:02:53.517Z,42.10
2018-11-02T12:05:23.887Z,41.80
2018-11-02T12:07:53.033Z,42.20
2018-11-02T12:10:24.394Z,40.20
2018-11-02T12:12:53.788Z,37.80
2018-11-02T12:15:23.739Z,36.90
2018-11-02T12:17:52.885Z,35.20
2018-11-02T12:20:25.197Z,33.00
2018-11-02T12:22:56.076Z,33.00
2018-11-02T12:25:25.183Z,32.10
2018-11-02T12:27:54.865Z,30.00
2018-11-02T12:30:23.962Z,29.00
2018-11-02T12:32:53.015Z,28.10
2018-11-02T12:35:22.456Z,27.60
2018-11-02T12:37:51.586Z,26.60
2018-11-02T12:40:21.884Z,27.10
2018-11-02T12:42:51.995Z,27.10
2018-11-02T12:45:21.926Z,27.80
2018-11-02T12:47:51.238Z,27.80
2018-11-02T12:50:23.014Z,28.10
2018-11-02T12:52:53.256Z,28.80
2018-11-02T12:55:22.886Z,29.10
2018-11-02T12:57:52.213Z,30.00
2018-11-02T13:00:42.332Z,31.60
2018-11-02T13:03:11.381Z,34.20
2018-11-02T13:05:40.502Z,36.60
2018-11-02T13:08:09.664Z,38.50
2018-11-02T13:10:38.768Z,40.50
2018-11-02T13:13:07.880Z,42.30
2018-11-02T13:15:37.048Z,43.60
2018-11-02T13:18:06.507Z,44.60
2018-11-02T13:20:35.873Z,45.90
2018-11-02T13:23:05.308Z,46.50
2018-11-02T13:25:34.517Z,46.90
2018-11-02T13:28:03.524Z,47.50
2018-11-02T13:30:32.848Z,48.30
2018-11-02T13:33:01.769Z,48.90
2018-11-02T13:35:30.894Z,49.80
2018-11-02T13:37:59.938Z,50.20
2018-11-02T13:40:29.243Z,50.60
2018-11-02T13:42:58.483Z,51.10
2018-11-02T13:45:27.667Z,51.40
2018-11-02T13:47:56.845Z,51.80
2018-11-02T13:50:26.231Z,51.80
2018-11-02T13:52:55.430Z,51.50
2018-11-02T13:55:24.605Z,51.80
2018-11-02T13:57:53.819Z,52.20
2018-11-02T14:00:23.148Z,53.20
2018-11-02T14:02:52.320Z,53.30
2018-11-02T14:05:21.522Z,53.30
2018-11-02T14:07:50.597Z,53.20
2018-11-02T14:10:19.690Z,53.60
2018-11-02T14:12:48.793Z,53.70
2018-11-02T14:15:17.866Z,53.70
2018-11-02T14:17:46.937Z,53.60
2018-11-02T14:20:16.315Z,54.30
2018-11-02T14:22:45.513Z,54.50
2018-11-02T14:25:15.846Z,54.60
2018-11-02T14:27:45.315Z,54.90
2018-11-02T14:30:15.769Z,56.00
2018-11-02T14:32:45.669Z,57.50
2018-11-02T14:35:14.825Z,58.40
2018-11-02T14:37:43.912Z,58.40
2018-11-02T14:40:13.102Z,59.70
2018-11-02T14:42:42.667Z,59.40
2018-11-02T14:45:13.875Z,60.20
2018-11-02T14:47:43.338Z,60.00
2018-11-02T14:50:13.443Z,59.70
2018-11-02T14:52:42.560Z,60.00
2018-11-02T14:55:11.689Z,59.80
2018-11-02T14:57:40.832Z,60.40
2018-11-02T15:00:11.369Z,60.40
2018-11-02T15:02:41.276Z,60.20
2018-11-02T15:05:12.220Z,60.20
2018-11-02T15:07:41.915Z,60.80
2018-11-02T15:10:11.109Z,61.10
2018-11-02T15:12:40.526Z,62.00
2018-11-02T15:15:10.162Z,62.10
2018-11-02T15:17:39.626Z,63.50
2018-11-02T15:20:13.778Z,63.10
2018-11-02T15:22:43.011Z,63.10
2018-11-02T15:25:12.260Z,63.30
2018-11-02T15:27:41.367Z,63.60
2018-11-02T15:30:12.391Z,65.70
2018-11-02T15:32:42.470Z,66.50
2018-11-02T15:35:12.440Z,67.00
2018-11-02T15:37:41.955Z,67.60
2018-11-02T15:42:44.741Z,67.60
2018-11-02T15:45:15.144Z,66.70
2018-11-02T15:47:45.192Z,67.40
2018-11-02T15:50:14.392Z,67.80
2018-11-02T15:52:43.562Z,68.00
2018-11-02T15:55:12.920Z,67.50
2018-11-02T15:57:42.263Z,66.70
2018-11-02T16:00:16.716Z,66.90
2018-11-02T16:02:47.031Z,67.20
2018-11-02T16:05:16.164Z,66.90
2018-11-02T16:07:45.425Z,66.60
2018-11-02T16:10:14.485Z,66.70
2018-11-02T16:12:44.952Z,67.10
2018-11-02T16:15:14.077Z,66.20
2018-11-02T16:17:43.441Z,66.80
2018-11-02T16:20:14.025Z,67.00
2018-11-02T16:22:43.901Z,67.30
2018-11-02T16:25:13.577Z,69.10
2018-11-02T16:27:43.093Z,69.50
2018-11-02T16:30:12.752Z,68.40
2018-11-02T16:32:41.817Z,66.90
2018-11-02T16:35:11.598Z,67.10
2018-11-02T16:37:40.865Z,66.80
2018-11-02T16:40:12.715Z,68.70
2018-11-02T16:42:42.293Z,68.50
2018-11-02T16:45:12.387Z,69.50
2018-11-02T16:47:42.163Z,68.50
2018-11-02T16:50:12.327Z,68.70
2018-11-02T16:52:41.829Z,70.40
2018-11-02T16:55:11.019Z,70.10
2018-11-02T16:57:40.987Z,69.50
2018-11-02T17:00:13.411Z,69.00
2018-11-02T17:02:42.736Z,67.90
2018-11-02T17:05:11.907Z,69.00
2018-11-02T17:07:41.991Z,68.30
2018-11-02T17:10:12.583Z,68.00
2018-11-02T17:12:42.436Z,68.10
2018-11-02T17:15:12.534Z,68.40
2018-11-02T17:17:41.693Z,68.90
2018-11-02T17:20:13.966Z,67.50
2018-11-02T17:22:43.273Z,67.50
2018-11-02T17:25:12.874Z,67.30
2018-11-02T17:27:42.013Z,67.10
2018-11-02T17:30:13.603Z,67.10
2018-11-02T17:32:42.697Z,68.10
2018-11-02T17:35:12.080Z,68.40
2018-11-02T17:37:41.220Z,68.10
2018-11-02T17:40:11.942Z,67.90
2018-11-02T17:42:41.670Z,67.50
2018-11-02T17:45:10.846Z,68.50
2018-11-02T17:47:41.050Z,68.50
2018-11-02T17:50:11.481Z,68.10
2018-11-02T17:52:40.819Z,68.40
2018-11-02T17:55:10.000Z,68.00
2018-11-02T17:57:39.162Z,68.80
2018-11-02T18:00:10.151Z,68.60
2018-11-02T18:02:39.368Z,68.50
2018-11-02T18:05:09.060Z,68.60
2018-11-02T18:07:38.468Z,68.80
2018-11-02T18:10:09.620Z,69.50
2018-11-02T18:12:39.627Z,70.70
2018-11-02T18:15:10.753Z,70.60
2018-11-02T18:17:40.058Z,71.00
2018-11-02T18:20:11.523Z,71.60
2018-11-02T18:22:40.677Z,71.60
2018-11-02T18:25:10.420Z,71.90
2018-11-02T18:27:40.057Z,72.20
2018-11-02T18:30:10.334Z,72.40
2018-11-02T18:32:39.647Z,72.90
2018-11-02T18:35:09.436Z,73.00
2018-11-02T18:37:38.539Z,74.10
2018-11-02T18:40:09.061Z,73.30
2018-11-02T18:42:38.404Z,73.00
2018-11-02T18:45:09.820Z,73.30
2018-11-02T18:47:46.240Z,73.60
2018-11-02T18:50:17.648Z,73.90
2018-11-02T18:52:47.474Z,74.30
2018-11-02T18:55:16.971Z,74.30
2018-11-02T18:57:46.743Z,74.60
2018-11-02T19:00:15.974Z,74.70
2018-11-02T19:02:45.098Z,75.20
2018-11-02T19:05:16.505Z,75.60
2018-11-02T19:07:45.775Z,75.80
2018-11-02T19:10:14.935Z,76.00
2018-11-02T19:12:44.806Z,75.80
2018-11-02T19:15:15.260Z,76.10
2018-11-02T19:17:44.542Z,76.40
2018-11-02T19:20:13.959Z,76.50
2018-11-02T19:22:43.288Z,76.60
2018-11-02T19:25:13.609Z,76.80
2018-11-02T19:27:43.476Z,76.60
2018-11-02T19:30:13.512Z,76.70
2018-11-02T19:32:43.329Z,77.00
2018-11-02T19:35:13.603Z,77.30
2018-11-02T19:37:43.223Z,77.50
2018-11-02T19:40:13.797Z,77.70
2018-11-02T19:42:43.319Z,77.90
2018-11-02T19:45:12.847Z,78.20
2018-11-02T19:47:47.198Z,78.40
2018-11-02T19:50:17.545Z,78.60
2018-11-02T19:52:46.862Z,78.50
2018-11-02T19:55:16.204Z,78.30
2018-11-02T19:57:45.784Z,78.20
2018-11-02T20:00:16.092Z,78.30
2018-11-02T20:02:45.261Z,78.60
2018-11-02T20:05:16.232Z,78.90
2018-11-02T20:07:45.461Z,79.20
2018-11-02T20:10:15.519Z,79.50
2018-11-02T20:12:45.478Z,79.80
2018-11-02T20:15:15.338Z,79.90
2018-11-02T20:17:44.512Z,80.10
2018-11-02T20:20:14.888Z,80.40
2018-11-02T20:22:44.034Z,80.40
2018-11-02T20:25:16.562Z,80.20
2018-11-02T20:27:46.118Z,79.80
2018-11-02T20:30:18.751Z,80.10
2018-11-02T20:32:48.003Z,80.30
2018-11-02T20:35:17.248Z,80.40
2018-11-02T20:37:46.403Z,80.40
2018-11-02T20:40:17.269Z,80.80
2018-11-02T20:42:46.803Z,81.20
2018-11-02T20:45:16.499Z,81.30
2018-11-02T20:47:51.037Z,81.30
2018-11-02T20:50:20.145Z,81.50
2018-11-02T20:52:49.781Z,81.60
2018-11-02T20:55:19.125Z,81.80
2018-11-02T21:00:24.691Z,82.10
2018-11-02T21:02:54.073Z,82.30
2018-11-02T21:05:23.696Z,82.20
2018-11-02T21:07:54.169Z,82.70
2018-11-02T21:10:23.846Z,83.50
2018-11-02T21:12:53.009Z,83.70
2018-11-02T21:15:23.602Z,83.20
2018-11-02T21:17:53.083Z,83.40
2018-11-02T21:20:24.136Z,83.50
2018-11-02T21:22:53.322Z,83.00
2018-11-02T21:25:22.501Z,83.80
2018-11-02T21:27:51.620Z,83.90
2018-11-02T21:30:23.178Z,84.40
2018-11-02T21:32:53.300Z,84.20
2018-11-02T21:35:23.296Z,84.20
2018-11-02T21:37:52.801Z,84.60
2018-11-02T21:40:23.455Z,84.90
2018-11-02T21:42:52.580Z,85.40
2018-11-02T21:45:22.949Z,85.70
2018-11-02T21:47:52.818Z,85.10
2018-11-02T21:50:22.072Z,85.60
2018-11-02T21:52:51.227Z,85.20
2018-11-02T21:55:20.412Z,84.20
2018-11-02T21:57:49.608Z,85.20
2018-11-02T22:00:21.078Z,86.30
2018-11-02T22:02:50.616Z,86.10
2018-11-02T22:05:20.144Z,86.50
2018-11-02T22:07:50.156Z,86.20
2018-11-02T22:10:19.462Z,86.50
2018-11-02T22:12:48.642Z,86.50
2018-11-02T22:15:17.753Z,86.90
2018-11-02T22:17:46.825Z,87.10
2018-11-02T22:20:16.362Z,87.10
2018-11-02T22:22:45.675Z,87.00
2018-11-02T22:25:15.661Z,87.10
2018-11-02T22:27:44.742Z,87.10
2018-11-02T22:30:15.657Z,87.90
2018-11-02T22:32:44.749Z,87.10
2018-11-02T22:35:14.745Z,86.90
2018-11-02T22:37:44.523Z,86.90
2018-11-02T22:40:14.651Z,87.00
2018-11-02T22:42:44.385Z,87.10
2018-11-02T22:45:14.505Z,87.10
2018-11-02T22:47:49.113Z,87.20
2018-11-02T22:50:18.266Z,87.30
2018-11-02T22:52:47.345Z,87.40
2018-11-02T22:55:16.552Z,87.40
2018-11-02T22:57:45.780Z,87.40
2018-11-02T23:00:16.862Z,87.50
2018-11-02T23:02:46.838Z,87.30
2018-11-02T23:05:16.015Z,88.10
2018-11-02T23:07:45.625Z,87.40
2018-11-02T23:10:14.787Z,87.40
2018-11-02T23:12:43.863Z,87.60
2018-11-02T23:15:15.029Z,88.00
2018-11-02T23:17:44.605Z,87.40
2018-11-02T23:20:15.271Z,87.40
2018-11-02T23:22:44.368Z,86.50
2018-11-02T23:25:13.793Z,86.30
2018-11-02T23:27:44.137Z,87.40
2018-11-02T23:30:13.432Z,86.90
2018-11-02T23:32:42.599Z,87.20
2018-11-02T23:35:11.714Z,87.30
2018-11-02T23:37:40.854Z,87.20
2018-11-02T23:40:11.059Z,86.90
2018-11-02T23:42:40.348Z,86.60
2018-11-02T23:45:10.572Z,86.90
2018-11-02T23:47:41.263Z,87.00
2018-11-02T23:50:10.726Z,87.20
2018-11-02T23:52:39.917Z,87.20
2018-11-02T23:55:09.344Z,87.20
2018-11-02T23:57:38.661Z,86.20
